Terminal Aerodrome Forecast
Issued by NWS Twin Cities, MN

Home | Current Version | Previous Version | Graphics & Text | Print | Product List | Glossary On
Versions: 1 2 3 4 5 6 7 8 9 10 11 12 13 14 15
779
FTUS43 KMPX 180219 CCA
TAFSTC
TAF COR
KSTC 180219Z 1802/1824 33006KT 5SM BR SCT015 BKN035 BKN120
     FM180400 34008KT P6SM BKN050
     FM180900 33010KT P6SM OVC080
     FM181300 33009KT P6SM FEW200
     FM181600 32013KT P6SM SCT030=

USA.gov is the U.S. government's official web portal to all federal, state and local government web resources and services.